Oaxaca, Mexico

12:49 PM CDT on September 03, 2015 (GMT -0500)
Xoxocotlan International | | Change Station
CLOSE
Current Station
Airport
Location: Oaxaca,
Elevation: 5013 ft
Nearby Weather Stations

Elev 5013 ft 16.97 °N, 96.73 °W | Updated 1 hour ago

Mostly Cloudy
Mostly Cloudy
73 °F
Feels Like 73 °F
N
0
Wind Variable Wind from North

Today
High -- | Low -- °F
--% Chance of Precip.
Yesterday
High -- | Low -- °F
Precip. -- in
7:13 AM 7:38 PM
Waning Gibbous, 68% visible
Pressure 30.21 in
Visibility 10.0 miles
Clouds Scattered Clouds 2500 ft
Mostly Cloudy 22000 ft
Dew Point 61 °F
Humidity 65%
Rainfall 0.00 in
Snow Depth Not available.
UV 6 out of 12
Pollen Not available.
Air Quality Not available.
Flu Activity Not available.
METAR MMOX 031641Z 00000KT 10SM SCT025TCU BKN220 23/16 A3021 RMK 8/208 ISOL AC
Pressure 30.21 in
Visibility 10.0 miles
Clouds Scattered Clouds 2500 ft
Mostly Cloudy 22000 ft
Dew Point 61 °F
Humidity 65%
Rainfall 0.00 in
Snow Depth Not available.
UV 6 out of 12
Pollen Not available.
Air Quality Not available.
Flu Activity Not available.
METAR MMOX 031641Z 00000KT 10SM SCT025TCU BKN220 23/16 A3021 RMK 8/208 ISOL AC

10-Day Weather Forecast

×

Almanac

Astronomy

Sep. 03, 2015 Rise Set
Actual Time
Civil Twilight
Nautical Twilight
Astronomical Twilight
Moon
Length of Visible Light
Length of Day
Tomorrow will be .
, % of the Moon is Illuminated

Today's Extremes

Country Highs Country Lows

Community

WunderPhotos

Upload Photos

1,851,993 photos uploaded!

WunderBlogs® & News

Nearby

Air Quality

  Air Quality AQ Index Pollutant
Not available.

Snow Depth

Station Depth Elevation

Earthquake Activity

City Distance Mag. Time & Date
Minimum magnitude displayed is 2.5.

Coastal Water Temperatures

Place Temperature

Stations

Nearby Weather Stations

Station Location Temp. Windchill Dew Point Humidity Wind Precip. Elev Updated Type